sensor_id;sensor_type;location;lat;lon;timestamp;temperature;humidity
40289;DHT22;28991;52.028;5.526;2023-09-08T00:01:25;26.10;57.20
40289;DHT22;28991;52.028;5.526;2023-09-08T00:03:50;26.10;57.20
40289;DHT22;28991;52.028;5.526;2023-09-08T00:06:16;26.00;57.20
40289;DHT22;28991;52.028;5.526;2023-09-08T00:08:41;26.10;57.30
40289;DHT22;28991;52.028;5.526;2023-09-08T00:11:08;26.10;57.30
40289;DHT22;28991;52.028;5.526;2023-09-08T00:13:34;26.00;57.30
40289;DHT22;28991;52.028;5.526;2023-09-08T00:15:59;26.00;57.30
40289;DHT22;28991;52.028;5.526;2023-09-08T00:18:25;26.10;57.40
40289;DHT22;28991;52.028;5.526;2023-09-08T00:20:50;26.00;57.30
40289;DHT22;28991;52.028;5.526;2023-09-08T00:23:16;26.00;57.30
40289;DHT22;28991;52.028;5.526;2023-09-08T00:25:42;26.00;57.30
40289;DHT22;28991;52.028;5.526;2023-09-08T00:28:07;26.00;57.30
40289;DHT22;28991;52.028;5.526;2023-09-08T00:30:33;26.00;57.30
40289;DHT22;28991;52.028;5.526;2023-09-08T00:32:58;26.00;57.40
40289;DHT22;28991;52.028;5.526;2023-09-08T00:35:24;26.00;57.40
40289;DHT22;28991;52.028;5.526;2023-09-08T00:37:49;26.00;57.40
40289;DHT22;28991;52.028;5.526;2023-09-08T00:40:15;26.00;57.40
40289;DHT22;28991;52.028;5.526;2023-09-08T00:42:41;26.00;57.40
40289;DHT22;28991;52.028;5.526;2023-09-08T00:45:06;26.00;57.40
40289;DHT22;28991;52.028;5.526;2023-09-08T00:47:33;26.00;57.50
40289;DHT22;28991;52.028;5.526;2023-09-08T00:49:59;25.90;57.40
40289;DHT22;28991;52.028;5.526;2023-09-08T00:52:25;26.00;57.50
40289;DHT22;28991;52.028;5.526;2023-09-08T00:54:56;25.90;57.40
40289;DHT22;28991;52.028;5.526;2023-09-08T00:57:22;26.00;57.50
40289;DHT22;28991;52.028;5.526;2023-09-08T00:59:47;26.00;57.50
40289;DHT22;28991;52.028;5.526;2023-09-08T01:02:13;26.00;57.50
40289;DHT22;28991;52.028;5.526;2023-09-08T01:04:39;26.00;57.50
40289;DHT22;28991;52.028;5.526;2023-09-08T01:07:07;26.00;57.60
40289;DHT22;28991;52.028;5.526;2023-09-08T01:09:34;26.00;57.60
40289;DHT22;28991;52.028;5.526;2023-09-08T01:12:03;26.00;57.60
40289;DHT22;28991;52.028;5.526;2023-09-08T01:14:29;25.90;57.50
40289;DHT22;28991;52.028;5.526;2023-09-08T01:16:55;25.90;57.50
40289;DHT22;28991;52.028;5.526;2023-09-08T01:19:22;25.90;57.50
40289;DHT22;28991;52.028;5.526;2023-09-08T01:27:33;26.00;57.70
40289;DHT22;28991;52.028;5.526;2023-09-08T01:30:02;25.90;57.60
40289;DHT22;28991;52.028;5.526;2023-09-08T01:32:29;26.00;57.70
40289;DHT22;28991;52.028;5.526;2023-09-08T01:34:58;25.90;57.60
40289;DHT22;28991;52.028;5.526;2023-09-08T01:37:24;25.90;57.60
40289;DHT22;28991;52.028;5.526;2023-09-08T01:39:50;26.00;57.70
40289;DHT22;28991;52.028;5.526;2023-09-08T01:42:15;25.90;57.60
40289;DHT22;28991;52.028;5.526;2023-09-08T01:44:41;25.90;57.70
40289;DHT22;28991;52.028;5.526;2023-09-08T01:47:06;25.90;57.80
40289;DHT22;28991;52.028;5.526;2023-09-08T01:49:32;25.90;57.80
40289;DHT22;28991;52.028;5.526;2023-09-08T01:51:58;25.90;57.70
40289;DHT22;28991;52.028;5.526;2023-09-08T01:54:23;25.90;57.80
40289;DHT22;28991;52.028;5.526;2023-09-08T01:56:49;25.90;57.80
40289;DHT22;28991;52.028;5.526;2023-09-08T01:59:16;25.90;57.80
40289;DHT22;28991;52.028;5.526;2023-09-08T02:01:42;25.90;57.80
40289;DHT22;28991;52.028;5.526;2023-09-08T02:04:07;25.90;57.90
40289;DHT22;28991;52.028;5.526;2023-09-08T02:06:33;25.80;57.80
40289;DHT22;28991;52.028;5.526;2023-09-08T02:08:59;25.90;57.80
40289;DHT22;28991;52.028;5.526;2023-09-08T02:11:24;25.90;57.80
40289;DHT22;28991;52.028;5.526;2023-09-08T02:13:50;25.90;57.90
40289;DHT22;28991;52.028;5.526;2023-09-08T02:16:16;25.90;57.90
40289;DHT22;28991;52.028;5.526;2023-09-08T02:18:43;25.90;57.90
40289;DHT22;28991;52.028;5.526;2023-09-08T02:21:09;25.90;57.80
40289;DHT22;28991;52.028;5.526;2023-09-08T02:23:35;25.80;57.80
40289;DHT22;28991;52.028;5.526;2023-09-08T02:26:00;25.90;57.90
40289;DHT22;28991;52.028;5.526;2023-09-08T02:28:26;25.80;58.00
40289;DHT22;28991;52.028;5.526;2023-09-08T02:30:51;25.90;57.90
40289;DHT22;28991;52.028;5.526;2023-09-08T02:33:17;25.90;57.90
40289;DHT22;28991;52.028;5.526;2023-09-08T02:35:43;25.90;57.90
40289;DHT22;28991;52.028;5.526;2023-09-08T02:38:09;25.80;57.90
40289;DHT22;28991;52.028;5.526;2023-09-08T02:40:35;25.90;58.00
40289;DHT22;28991;52.028;5.526;2023-09-08T02:43:01;25.90;58.00
40289;DHT22;28991;52.028;5.526;2023-09-08T02:45:27;25.80;57.90
40289;DHT22;28991;52.028;5.526;2023-09-08T02:47:53;25.90;58.00
40289;DHT22;28991;52.028;5.526;2023-09-08T02:50:18;25.90;58.00
40289;DHT22;28991;52.028;5.526;2023-09-08T02:52:44;25.90;58.10
40289;DHT22;28991;52.028;5.526;2023-09-08T02:55:10;25.80;58.00
40289;DHT22;28991;52.028;5.526;2023-09-08T02:57:37;25.80;58.00
40289;DHT22;28991;52.028;5.526;2023-09-08T03:00:03;25.80;58.10
40289;DHT22;28991;52.028;5.526;2023-09-08T03:02:30;25.80;58.00
40289;DHT22;28991;52.028;5.526;2023-09-08T03:04:56;25.80;58.00
40289;DHT22;28991;52.028;5.526;2023-09-08T03:07:22;25.80;58.00
40289;DHT22;28991;52.028;5.526;2023-09-08T03:09:47;25.90;58.10
40289;DHT22;28991;52.028;5.526;2023-09-08T03:12:13;25.80;58.00
40289;DHT22;28991;52.028;5.526;2023-09-08T03:14:39;25.80;58.00
40289;DHT22;28991;52.028;5.526;2023-09-08T03:17:04;25.80;58.00
40289;DHT22;28991;52.028;5.526;2023-09-08T03:19:30;25.80;58.10
40289;DHT22;28991;52.028;5.526;2023-09-08T03:21:56;25.80;58.20
40289;DHT22;28991;52.028;5.526;2023-09-08T03:24:24;25.80;58.10
40289;DHT22;28991;52.028;5.526;2023-09-08T03:26:50;25.80;58.10
40289;DHT22;28991;52.028;5.526;2023-09-08T03:29:15;25.80;58.00
40289;DHT22;28991;52.028;5.526;2023-09-08T03:31:41;25.80;58.10
40289;DHT22;28991;52.028;5.526;2023-09-08T03:34:06;25.80;58.10
40289;DHT22;28991;52.028;5.526;2023-09-08T03:36:32;25.80;58.10
40289;DHT22;28991;52.028;5.526;2023-09-08T03:39:02;25.80;58.10
40289;DHT22;28991;52.028;5.526;2023-09-08T03:41:27;25.80;58.10
40289;DHT22;28991;52.028;5.526;2023-09-08T03:43:53;25.80;58.10
40289;DHT22;28991;52.028;5.526;2023-09-08T03:46:18;25.80;58.10
40289;DHT22;28991;52.028;5.526;2023-09-08T03:48:44;25.80;58.10
40289;DHT22;28991;52.028;5.526;2023-09-08T03:51:10;25.80;58.10
40289;DHT22;28991;52.028;5.526;2023-09-08T03:53:35;25.80;58.10
40289;DHT22;28991;52.028;5.526;2023-09-08T03:56:01;25.80;58.10
40289;DHT22;28991;52.028;5.526;2023-09-08T03:58:26;25.80;58.10
40289;DHT22;28991;52.028;5.526;2023-09-08T04:00:52;25.80;58.10
40289;DHT22;28991;52.028;5.526;2023-09-08T04:03:18;25.80;58.10
40289;DHT22;28991;52.028;5.526;2023-09-08T04:05:43;25.70;58.00
40289;DHT22;28991;52.028;5.526;2023-09-08T04:08:09;25.80;58.10
40289;DHT22;28991;52.028;5.526;2023-09-08T04:10:35;25.70;58.10
40289;DHT22;28991;52.028;5.526;2023-09-08T04:13:00;25.80;58.20
40289;DHT22;28991;52.028;5.526;2023-09-08T04:15:26;25.80;58.20
40289;DHT22;28991;52.028;5.526;2023-09-08T04:17:51;25.80;58.20
40289;DHT22;28991;52.028;5.526;2023-09-08T04:20:17;25.70;58.10
40289;DHT22;28991;52.028;5.526;2023-09-08T04:22:43;25.80;58.20
40289;DHT22;28991;52.028;5.526;2023-09-08T04:25:09;25.70;58.10
40289;DHT22;28991;52.028;5.526;2023-09-08T04:27:35;25.80;58.20
40289;DHT22;28991;52.028;5.526;2023-09-08T04:30:03;25.70;58.10
40289;DHT22;28991;52.028;5.526;2023-09-08T04:32:29;25.70;58.10
40289;DHT22;28991;52.028;5.526;2023-09-08T04:34:55;25.80;58.20
40289;DHT22;28991;52.028;5.526;2023-09-08T04:37:20;25.70;58.10
40289;DHT22;28991;52.028;5.526;2023-09-08T04:39:46;25.80;58.20
40289;DHT22;28991;52.028;5.526;2023-09-08T04:42:12;25.70;58.20
40289;DHT22;28991;52.028;5.526;2023-09-08T04:44:38;25.70;58.10
40289;DHT22;28991;52.028;5.526;2023-09-08T04:47:04;25.70;58.20
40289;DHT22;28991;52.028;5.526;2023-09-08T04:49:30;25.80;58.20
40289;DHT22;28991;52.028;5.526;2023-09-08T04:51:56;25.70;58.20
40289;DHT22;28991;52.028;5.526;2023-09-08T04:54:22;25.80;58.30
40289;DHT22;28991;52.028;5.526;2023-09-08T04:56:49;25.70;58.20
40289;DHT22;28991;52.028;5.526;2023-09-08T04:59:16;25.80;58.20
40289;DHT22;28991;52.028;5.526;2023-09-08T05:01:41;25.80;58.30
40289;DHT22;28991;52.028;5.526;2023-09-08T05:04:09;25.70;58.20
40289;DHT22;28991;52.028;5.526;2023-09-08T05:06:34;25.70;58.20
40289;DHT22;28991;52.028;5.526;2023-09-08T05:09:00;25.70;58.20
40289;DHT22;28991;52.028;5.526;2023-09-08T05:11:26;25.70;58.10
40289;DHT22;28991;52.028;5.526;2023-09-08T05:13:51;25.80;58.00
40289;DHT22;28991;52.028;5.526;2023-09-08T05:16:17;25.70;57.70
40289;DHT22;28991;52.028;5.526;2023-09-08T05:18:44;25.70;57.40
40289;DHT22;28991;52.028;5.526;2023-09-08T05:21:09;25.70;57.20
40289;DHT22;28991;52.028;5.526;2023-09-08T05:23:35;25.60;57.00
40289;DHT22;28991;52.028;5.526;2023-09-08T05:26:01;25.60;56.90
40289;DHT22;28991;52.028;5.526;2023-09-08T05:28:26;25.50;56.80
40289;DHT22;28991;52.028;5.526;2023-09-08T05:30:53;25.50;56.80
40289;DHT22;28991;52.028;5.526;2023-09-08T05:33:19;25.50;56.80
40289;DHT22;28991;52.028;5.526;2023-09-08T05:35:45;25.50;56.70
40289;DHT22;28991;52.028;5.526;2023-09-08T05:38:11;25.40;56.70
40289;DHT22;28991;52.028;5.526;2023-09-08T05:40:36;25.50;56.80
40289;DHT22;28991;52.028;5.526;2023-09-08T05:43:02;25.40;56.70
40289;DHT22;28991;52.028;5.526;2023-09-08T05:45:28;25.30;56.80
40289;DHT22;28991;52.028;5.526;2023-09-08T05:47:53;25.30;56.80
40289;DHT22;28991;52.028;5.526;2023-09-08T05:50:19;25.30;56.90
40289;DHT22;28991;52.028;5.526;2023-09-08T05:52:44;25.40;56.90
40289;DHT22;28991;52.028;5.526;2023-09-08T05:55:10;25.40;56.70
40289;DHT22;28991;52.028;5.526;2023-09-08T05:57:36;25.40;56.60
40289;DHT22;28991;52.028;5.526;2023-09-08T06:00:05;25.50;56.40
40289;DHT22;28991;52.028;5.526;2023-09-08T06:02:31;25.50;56.20
40289;DHT22;28991;52.028;5.526;2023-09-08T06:04:57;25.60;56.20
40289;DHT22;28991;52.028;5.526;2023-09-08T06:07:22;25.60;56.10
40289;DHT22;28991;52.028;5.526;2023-09-08T06:09:48;25.60;55.80
40289;DHT22;28991;52.028;5.526;2023-09-08T06:12:13;25.60;55.60
40289;DHT22;28991;52.028;5.526;2023-09-08T06:14:39;25.70;55.70
40289;DHT22;28991;52.028;5.526;2023-09-08T06:17:04;25.70;55.60
40289;DHT22;28991;52.028;5.526;2023-09-08T06:19:30;25.80;55.50
40289;DHT22;28991;52.028;5.526;2023-09-08T06:21:55;25.80;55.30
40289;DHT22;28991;52.028;5.526;2023-09-08T06:24:21;25.80;55.30
40289;DHT22;28991;52.028;5.526;2023-09-08T06:26:47;25.80;55.60
40289;DHT22;28991;52.028;5.526;2023-09-08T06:29:12;25.80;55.70
40289;DHT22;28991;52.028;5.526;2023-09-08T06:31:38;25.90;55.60
40289;DHT22;28991;52.028;5.526;2023-09-08T06:34:03;26.00;55.40
40289;DHT22;28991;52.028;5.526;2023-09-08T06:36:29;26.10;55.40
40289;DHT22;28991;52.028;5.526;2023-09-08T06:38:55;26.10;55.50
40289;DHT22;28991;52.028;5.526;2023-09-08T06:41:20;26.20;55.40
40289;DHT22;28991;52.028;5.526;2023-09-08T06:43:48;26.30;54.90
40289;DHT22;28991;52.028;5.526;2023-09-08T06:46:13;26.40;54.70
40289;DHT22;28991;52.028;5.526;2023-09-08T06:48:39;26.40;55.00
40289;DHT22;28991;52.028;5.526;2023-09-08T06:51:05;26.40;54.50
40289;DHT22;28991;52.028;5.526;2023-09-08T06:53:30;26.40;54.50
40289;DHT22;28991;52.028;5.526;2023-09-08T06:55:56;26.50;54.50
40289;DHT22;28991;52.028;5.526;2023-09-08T06:58:22;26.60;54.30
40289;DHT22;28991;52.028;5.526;2023-09-08T07:00:47;26.70;54.20
40289;DHT22;28991;52.028;5.526;2023-09-08T07:03:15;26.80;54.10
40289;DHT22;28991;52.028;5.526;2023-09-08T07:05:40;26.80;53.90
40289;DHT22;28991;52.028;5.526;2023-09-08T07:08:06;26.80;54.00
40289;DHT22;28991;52.028;5.526;2023-09-08T07:10:32;26.80;54.10
40289;DHT22;28991;52.028;5.526;2023-09-08T07:12:57;26.90;53.90
40289;DHT22;28991;52.028;5.526;2023-09-08T07:15:23;26.90;53.90
40289;DHT22;28991;52.028;5.526;2023-09-08T07:17:48;27.00;54.00
40289;DHT22;28991;52.028;5.526;2023-09-08T07:20:14;26.90;53.80
40289;DHT22;28991;52.028;5.526;2023-09-08T07:22:40;26.90;53.80
40289;DHT22;28991;52.028;5.526;2023-09-08T07:25:06;27.00;53.80
40289;DHT22;28991;52.028;5.526;2023-09-08T07:27:32;27.00;53.80
40289;DHT22;28991;52.028;5.526;2023-09-08T07:29:57;27.10;53.70
40289;DHT22;28991;52.028;5.526;2023-09-08T07:32:23;27.20;53.80
40289;DHT22;28991;52.028;5.526;2023-09-08T07:34:50;27.20;54.10
40289;DHT22;28991;52.028;5.526;2023-09-08T07:37:24;27.20;53.60
40289;DHT22;28991;52.028;5.526;2023-09-08T07:39:50;27.20;53.60
40289;DHT22;28991;52.028;5.526;2023-09-08T07:42:16;27.30;53.60
40289;DHT22;28991;52.028;5.526;2023-09-08T07:44:42;27.30;53.70
40289;DHT22;28991;52.028;5.526;2023-09-08T07:47:07;27.40;53.80
40289;DHT22;28991;52.028;5.526;2023-09-08T07:49:34;27.40;53.80
40289;DHT22;28991;52.028;5.526;2023-09-08T07:52:00;27.50;53.90
40289;DHT22;28991;52.028;5.526;2023-09-08T07:54:25;27.50;54.00
40289;DHT22;28991;52.028;5.526;2023-09-08T07:56:51;27.60;54.00
40289;DHT22;28991;52.028;5.526;2023-09-08T07:59:16;27.60;53.90
40289;DHT22;28991;52.028;5.526;2023-09-08T08:01:42;27.60;53.90
40289;DHT22;28991;52.028;5.526;2023-09-08T08:04:08;27.60;53.90
40289;DHT22;28991;52.028;5.526;2023-09-08T08:06:33;27.70;53.90
40289;DHT22;28991;52.028;5.526;2023-09-08T08:08:59;27.60;53.90
40289;DHT22;28991;52.028;5.526;2023-09-08T08:11:24;27.70;54.10
40289;DHT22;28991;52.028;5.526;2023-09-08T08:13:51;27.70;54.00
40289;DHT22;28991;52.028;5.526;2023-09-08T08:16:17;27.70;54.10
40289;DHT22;28991;52.028;5.526;2023-09-08T08:18:43;27.70;54.00
40289;DHT22;28991;52.028;5.526;2023-09-08T08:21:08;27.70;54.10
40289;DHT22;28991;52.028;5.526;2023-09-08T08:23:34;27.70;54.20
40289;DHT22;28991;52.028;5.526;2023-09-08T08:26:00;27.70;54.20
40289;DHT22;28991;52.028;5.526;2023-09-08T08:28:26;27.70;54.20
40289;DHT22;28991;52.028;5.526;2023-09-08T08:30:52;27.70;54.20
40289;DHT22;28991;52.028;5.526;2023-09-08T08:33:18;27.70;53.90
40289;DHT22;28991;52.028;5.526;2023-09-08T08:35:49;27.70;54.40
40289;DHT22;28991;52.028;5.526;2023-09-08T08:38:15;27.70;54.50
40289;DHT22;28991;52.028;5.526;2023-09-08T08:40:41;27.70;54.60
40289;DHT22;28991;52.028;5.526;2023-09-08T08:43:07;27.70;54.70
40289;DHT22;28991;52.028;5.526;2023-09-08T08:45:34;27.70;54.80
40289;DHT22;28991;52.028;5.526;2023-09-08T08:48:01;27.70;54.80
40289;DHT22;28991;52.028;5.526;2023-09-08T08:50:27;27.70;54.90
40289;DHT22;28991;52.028;5.526;2023-09-08T08:52:53;27.70;55.00
40289;DHT22;28991;52.028;5.526;2023-09-08T08:55:19;27.60;55.00
40289;DHT22;28991;52.028;5.526;2023-09-08T08:57:44;27.60;55.20
40289;DHT22;28991;52.028;5.526;2023-09-08T09:00:11;27.60;55.60
40289;DHT22;28991;52.028;5.526;2023-09-08T09:02:42;27.50;55.60
40289;DHT22;28991;52.028;5.526;2023-09-08T09:05:16;27.50;55.80
40289;DHT22;28991;52.028;5.526;2023-09-08T09:07:43;27.50;56.00
40289;DHT22;28991;52.028;5.526;2023-09-08T09:10:09;27.40;56.00
40289;DHT22;28991;52.028;5.526;2023-09-08T09:12:39;27.40;56.10
40289;DHT22;28991;52.028;5.526;2023-09-08T09:15:05;27.40;56.40
40289;DHT22;28991;52.028;5.526;2023-09-08T09:17:34;27.40;56.50
40289;DHT22;28991;52.028;5.526;2023-09-08T09:20:19;27.40;56.50
40289;DHT22;28991;52.028;5.526;2023-09-08T09:22:46;27.40;56.50
40289;DHT22;28991;52.028;5.526;2023-09-08T09:25:24;27.40;56.70
40289;DHT22;28991;52.028;5.526;2023-09-08T09:27:54;27.40;57.20
40289;DHT22;28991;52.028;5.526;2023-09-08T09:30:21;27.40;56.70
40289;DHT22;28991;52.028;5.526;2023-09-08T09:32:48;27.40;56.90
40289;DHT22;28991;52.028;5.526;2023-09-08T09:35:16;27.40;56.90
40289;DHT22;28991;52.028;5.526;2023-09-08T09:37:42;27.40;57.20
40289;DHT22;28991;52.028;5.526;2023-09-08T09:40:09;27.40;56.90
40289;DHT22;28991;52.028;5.526;2023-09-08T09:42:38;27.30;57.10
40289;DHT22;28991;52.028;5.526;2023-09-08T09:45:06;27.30;56.90
40289;DHT22;28991;52.028;5.526;2023-09-08T09:47:32;27.30;57.00
40289;DHT22;28991;52.028;5.526;2023-09-08T09:49:57;27.40;57.60
40289;DHT22;28991;52.028;5.526;2023-09-08T09:52:24;27.30;58.00
40289;DHT22;28991;52.028;5.526;2023-09-08T09:54:52;27.40;57.70
40289;DHT22;28991;52.028;5.526;2023-09-08T09:57:21;27.40;58.10
40289;DHT22;28991;52.028;5.526;2023-09-08T09:59:47;27.40;57.40
40289;DHT22;28991;52.028;5.526;2023-09-08T10:02:17;27.30;57.30
40289;DHT22;28991;52.028;5.526;2023-09-08T10:04:48;27.40;57.50
40289;DHT22;28991;52.028;5.526;2023-09-08T10:07:15;27.40;57.50
40289;DHT22;28991;52.028;5.526;2023-09-08T10:09:41;27.40;57.50
40289;DHT22;28991;52.028;5.526;2023-09-08T10:12:08;27.40;57.50
40289;DHT22;28991;52.028;5.526;2023-09-08T10:14:36;27.40;57.50
40289;DHT22;28991;52.028;5.526;2023-09-08T10:17:02;27.40;57.50
40289;DHT22;28991;52.028;5.526;2023-09-08T10:19:31;27.40;57.40
40289;DHT22;28991;52.028;5.526;2023-09-08T10:22:00;27.40;57.50
40289;DHT22;28991;52.028;5.526;2023-09-08T10:24:32;27.40;57.50
40289;DHT22;28991;52.028;5.526;2023-09-08T10:27:10;27.40;57.40
40289;DHT22;28991;52.028;5.526;2023-09-08T10:29:37;27.40;57.30
40289;DHT22;28991;52.028;5.526;2023-09-08T10:32:04;27.40;57.40
40289;DHT22;28991;52.028;5.526;2023-09-08T10:34:32;27.40;57.40
40289;DHT22;28991;52.028;5.526;2023-09-08T10:36:58;27.50;57.30
40289;DHT22;28991;52.028;5.526;2023-09-08T10:39:34;27.50;57.40
40289;DHT22;28991;52.028;5.526;2023-09-08T10:47:18;27.50;57.30
40289;DHT22;28991;52.028;5.526;2023-09-08T10:49:44;27.60;57.30
40289;DHT22;28991;52.028;5.526;2023-09-08T10:52:12;27.60;57.50
40289;DHT22;28991;52.028;5.526;2023-09-08T10:54:41;27.60;57.40
40289;DHT22;28991;52.028;5.526;2023-09-08T10:57:13;27.60;57.30
40289;DHT22;28991;52.028;5.526;2023-09-08T10:59:40;27.60;57.40
40289;DHT22;28991;52.028;5.526;2023-09-08T11:02:05;27.70;57.40
40289;DHT22;28991;52.028;5.526;2023-09-08T11:04:31;27.60;57.30
40289;DHT22;28991;52.028;5.526;2023-09-08T11:06:59;27.70;57.60
40289;DHT22;28991;52.028;5.526;2023-09-08T11:09:25;27.70;57.90
40289;DHT22;28991;52.028;5.526;2023-09-08T11:11:51;27.70;57.70
40289;DHT22;28991;52.028;5.526;2023-09-08T11:14:17;27.70;57.90
40289;DHT22;28991;52.028;5.526;2023-09-08T11:16:43;27.80;57.60
40289;DHT22;28991;52.028;5.526;2023-09-08T11:19:09;27.70;57.90
40289;DHT22;28991;52.028;5.526;2023-09-08T11:21:35;27.80;57.60
40289;DHT22;28991;52.028;5.526;2023-09-08T11:24:05;27.80;57.60
40289;DHT22;28991;52.028;5.526;2023-09-08T11:26:34;27.80;57.60
40289;DHT22;28991;52.028;5.526;2023-09-08T11:29:00;27.80;57.60
40289;DHT22;28991;52.028;5.526;2023-09-08T11:31:26;27.70;57.80
40289;DHT22;28991;52.028;5.526;2023-09-08T11:33:55;27.80;57.70
40289;DHT22;28991;52.028;5.526;2023-09-08T11:36:21;27.80;57.70
40289;DHT22;28991;52.028;5.526;2023-09-08T11:38:46;27.80;57.80
40289;DHT22;28991;52.028;5.526;2023-09-08T11:41:12;27.80;57.80
40289;DHT22;28991;52.028;5.526;2023-09-08T11:43:38;27.90;57.90
40289;DHT22;28991;52.028;5.526;2023-09-08T11:46:04;27.80;58.10
40289;DHT22;28991;52.028;5.526;2023-09-08T11:48:31;27.80;57.90
40289;DHT22;28991;52.028;5.526;2023-09-08T11:50:56;27.80;58.00
40289;DHT22;28991;52.028;5.526;2023-09-08T11:53:23;27.90;58.30
40289;DHT22;28991;52.028;5.526;2023-09-08T11:55:49;27.80;58.30
40289;DHT22;28991;52.028;5.526;2023-09-08T11:58:16;27.90;58.10
40289;DHT22;28991;52.028;5.526;2023-09-08T12:00:42;27.90;58.50
40289;DHT22;28991;52.028;5.526;2023-09-08T12:03:12;27.90;58.00
40289;DHT22;28991;52.028;5.526;2023-09-08T12:05:39;27.90;57.90
40289;DHT22;28991;52.028;5.526;2023-09-08T12:08:06;27.90;58.20
40289;DHT22;28991;52.028;5.526;2023-09-08T12:10:42;27.90;58.00
40289;DHT22;28991;52.028;5.526;2023-09-08T12:13:08;28.00;58.20
40289;DHT22;28991;52.028;5.526;2023-09-08T12:15:39;27.90;58.20
40289;DHT22;28991;52.028;5.526;2023-09-08T12:18:10;27.90;58.10
40289;DHT22;28991;52.028;5.526;2023-09-08T12:20:37;27.90;58.10
40289;DHT22;28991;52.028;5.526;2023-09-08T12:23:18;28.00;58.20
40289;DHT22;28991;52.028;5.526;2023-09-08T12:25:45;27.90;58.30
40289;DHT22;28991;52.028;5.526;2023-09-08T12:28:11;28.00;58.40
40289;DHT22;28991;52.028;5.526;2023-09-08T12:30:36;28.00;58.40
40289;DHT22;28991;52.028;5.526;2023-09-08T12:33:03;28.00;58.30
40289;DHT22;28991;52.028;5.526;2023-09-08T12:35:29;28.00;58.30
40289;DHT22;28991;52.028;5.526;2023-09-08T12:37:58;28.00;58.30
40289;DHT22;28991;52.028;5.526;2023-09-08T12:40:26;28.00;58.50
40289;DHT22;28991;52.028;5.526;2023-09-08T12:42:52;28.00;58.50
40289;DHT22;28991;52.028;5.526;2023-09-08T12:45:18;28.00;58.50
40289;DHT22;28991;52.028;5.526;2023-09-08T12:47:44;28.00;58.60
40289;DHT22;28991;52.028;5.526;2023-09-08T12:50:10;28.00;58.70
40289;DHT22;28991;52.028;5.526;2023-09-08T12:52:35;28.00;58.50
40289;DHT22;28991;52.028;5.526;2023-09-08T12:55:01;28.00;58.50
40289;DHT22;28991;52.028;5.526;2023-09-08T12:57:27;28.00;58.50
40289;DHT22;28991;52.028;5.526;2023-09-08T12:59:52;28.00;58.50
40289;DHT22;28991;52.028;5.526;2023-09-08T13:02:18;28.10;58.50
40289;DHT22;28991;52.028;5.526;2023-09-08T13:04:44;28.10;58.70
40289;DHT22;28991;52.028;5.526;2023-09-08T13:07:15;28.10;58.70
40289;DHT22;28991;52.028;5.526;2023-09-08T13:09:41;28.10;58.70
40289;DHT22;28991;52.028;5.526;2023-09-08T13:12:06;28.10;59.00
40289;DHT22;28991;52.028;5.526;2023-09-08T13:14:34;28.10;59.00
40289;DHT22;28991;52.028;5.526;2023-09-08T13:17:00;28.00;59.50
40289;DHT22;28991;52.028;5.526;2023-09-08T13:19:26;28.00;59.90
40289;DHT22;28991;52.028;5.526;2023-09-08T13:21:52;28.10;60.00
40289;DHT22;28991;52.028;5.526;2023-09-08T13:24:17;28.10;59.80
40289;DHT22;28991;52.028;5.526;2023-09-08T13:26:43;28.00;59.80
40289;DHT22;28991;52.028;5.526;2023-09-08T13:29:08;28.00;59.70
40289;DHT22;28991;52.028;5.526;2023-09-08T13:31:34;28.10;59.50
40289;DHT22;28991;52.028;5.526;2023-09-08T13:33:59;28.10;60.10
40289;DHT22;28991;52.028;5.526;2023-09-08T13:36:25;28.10;59.40
40289;DHT22;28991;52.028;5.526;2023-09-08T13:38:50;28.00;59.30
40289;DHT22;28991;52.028;5.526;2023-09-08T13:41:16;28.10;59.20
40289;DHT22;28991;52.028;5.526;2023-09-08T13:43:42;28.10;59.20
40289;DHT22;28991;52.028;5.526;2023-09-08T13:46:07;28.10;59.10
40289;DHT22;28991;52.028;5.526;2023-09-08T13:48:33;28.10;58.90
40289;DHT22;28991;52.028;5.526;2023-09-08T13:51:02;28.10;58.90
40289;DHT22;28991;52.028;5.526;2023-09-08T13:53:29;28.20;59.00
40289;DHT22;28991;52.028;5.526;2023-09-08T13:55:56;28.10;59.00
40289;DHT22;28991;52.028;5.526;2023-09-08T13:58:21;28.10;59.00
40289;DHT22;28991;52.028;5.526;2023-09-08T14:00:47;28.10;59.00
40289;DHT22;28991;52.028;5.526;2023-09-08T14:03:14;28.20;59.00
40289;DHT22;28991;52.028;5.526;2023-09-08T14:05:40;28.10;58.80
40289;DHT22;28991;52.028;5.526;2023-09-08T14:08:06;28.10;58.80
40289;DHT22;28991;52.028;5.526;2023-09-08T14:10:31;28.10;58.80
40289;DHT22;28991;52.028;5.526;2023-09-08T14:12:57;28.10;58.80
40289;DHT22;28991;52.028;5.526;2023-09-08T14:15:22;28.10;58.80
40289;DHT22;28991;52.028;5.526;2023-09-08T14:17:48;28.10;59.40
40289;DHT22;28991;52.028;5.526;2023-09-08T14:20:14;28.10;58.90
40289;DHT22;28991;52.028;5.526;2023-09-08T14:22:40;28.10;59.10
40289;DHT22;28991;52.028;5.526;2023-09-08T14:25:06;28.10;59.00
40289;DHT22;28991;52.028;5.526;2023-09-08T14:27:32;28.00;59.10
40289;DHT22;28991;52.028;5.526;2023-09-08T14:29:59;28.00;59.20
40289;DHT22;28991;52.028;5.526;2023-09-08T14:32:24;28.00;59.10
40289;DHT22;28991;52.028;5.526;2023-09-08T14:34:50;28.00;59.20
40289;DHT22;28991;52.028;5.526;2023-09-08T14:37:15;28.00;59.30
40289;DHT22;28991;52.028;5.526;2023-09-08T14:39:41;28.00;59.40
40289;DHT22;28991;52.028;5.526;2023-09-08T14:42:07;27.90;59.40
40289;DHT22;28991;52.028;5.526;2023-09-08T14:44:33;27.90;59.50
40289;DHT22;28991;52.028;5.526;2023-09-08T14:46:58;27.90;59.50
40289;DHT22;28991;52.028;5.526;2023-09-08T14:49:24;27.90;59.60
40289;DHT22;28991;52.028;5.526;2023-09-08T14:51:49;27.80;59.60
40289;DHT22;28991;52.028;5.526;2023-09-08T14:54:15;27.80;59.60
40289;DHT22;28991;52.028;5.526;2023-09-08T14:56:41;27.80;59.70
40289;DHT22;28991;52.028;5.526;2023-09-08T14:59:08;27.80;59.80
40289;DHT22;28991;52.028;5.526;2023-09-08T15:01:34;27.80;59.80
40289;DHT22;28991;52.028;5.526;2023-09-08T15:03:59;27.80;59.90
40289;DHT22;28991;52.028;5.526;2023-09-08T15:06:25;27.70;59.90
40289;DHT22;28991;52.028;5.526;2023-09-08T15:08:51;27.70;59.90
40289;DHT22;28991;52.028;5.526;2023-09-08T15:11:16;27.80;60.00
40289;DHT22;28991;52.028;5.526;2023-09-08T15:13:42;27.70;60.60
40289;DHT22;28991;52.028;5.526;2023-09-08T15:16:07;27.70;60.00
40289;DHT22;28991;52.028;5.526;2023-09-08T15:18:33;27.70;60.10
40289;DHT22;28991;52.028;5.526;2023-09-08T15:20:58;27.70;60.10
40289;DHT22;28991;52.028;5.526;2023-09-08T15:23:24;27.60;60.00
40289;DHT22;28991;52.028;5.526;2023-09-08T15:25:57;27.60;60.10
40289;DHT22;28991;52.028;5.526;2023-09-08T15:28:23;27.60;60.20
40289;DHT22;28991;52.028;5.526;2023-09-08T15:30:50;27.60;60.20
40289;DHT22;28991;52.028;5.526;2023-09-08T15:33:17;27.60;60.20
40289;DHT22;28991;52.028;5.526;2023-09-08T15:35:43;27.50;60.20